world map with YNY marked

YNY - Airport

This information may not be accurate or current and is not valid for navigation or flight planning. No warranty of fitness for any purpose is made or implied.

flag of Korea (Republic of) (South Korea)

Donate via PayPal

Additional information is available on the NEW Great Circle Mapper

Location
City:  Yangyang, Korea (Republic of) (South Korea)
Name:Yangyang International Airport
ICAO / IATA:RKNY / YNY

Details
Type:Airport (Aerodrome, Airfield)
Latitude:38°03'41"N (38.061311)
Longitude:128°40'09"E (128.669164)
Datum:WGS 1984
Elevation:241 ft (73 m)
Runways:1
Longest:8202 × 148 ft (2500 × 45 m)

Time
Timezone:UTC+9 (DST+11)
Local Time:

Weather
METAR:RKNY  041400Z AUTO 25008KT 220V280 9999 NCD 03/M16 Q1023
TAF:RKNY  (expired)

Related Locations
Nearby:
Farthest:SUPE: 12141 mi / 19538 km
Punta el Este [El Jagüel Airport], MA, UY

Find:

   beyond  
but within

Other Information
Maps:
Sources:

  


 


Great Circle Mapper   Great Circle Mapper
Great Circle Mapper FAQ   Great Circle Mapper FAQ
  Karl's Home Page
KLS²   KLS² Home
   GC on Facebook
Airlines of the World   Airlines of the World
Donate via PayPal


Copyright © 2004-2019, Karl L. Swartz. All rights reserved.
All trademarks mentioned herein belong to their respective owners.

Please see credits for attribution and copyright information.

Karl Swartz <karl@kls2.com>
  Powered by FreeBSD
Valid HTML 4.01!
Labeled with ICRA
hCard Microformat
Geo Microformat